sensor_id;sensor_type;location;lat;lon;timestamp;P1;durP1;ratioP1;P2;durP2;ratioP2
56235;SDS011;42143;42.972;-0.192;2022-07-06T00:01:32;9.35;;;3.50;;
56235;SDS011;42143;42.972;-0.192;2022-07-06T00:03:58;7.57;;;3.42;;
56235;SDS011;42143;42.972;-0.192;2022-07-06T00:06:25;10.45;;;3.60;;
56235;SDS011;42143;42.972;-0.192;2022-07-06T00:08:51;11.82;;;3.60;;
56235;SDS011;42143;42.972;-0.192;2022-07-06T00:11:17;7.38;;;3.30;;
56235;SDS011;42143;42.972;-0.192;2022-07-06T00:13:43;6.65;;;3.10;;
56235;SDS011;42143;42.972;-0.192;2022-07-06T00:16:09;9.68;;;3.30;;
56235;SDS011;42143;42.972;-0.192;2022-07-06T00:18:35;11.27;;;3.58;;
56235;SDS011;42143;42.972;-0.192;2022-07-06T00:21:01;8.10;;;3.58;;
56235;SDS011;42143;42.972;-0.192;2022-07-06T00:23:28;7.57;;;3.28;;
56235;SDS011;42143;42.972;-0.192;2022-07-06T00:25:54;11.95;;;3.50;;
56235;SDS011;42143;42.972;-0.192;2022-07-06T00:28:20;11.93;;;3.70;;
56235;SDS011;42143;42.972;-0.192;2022-07-06T00:30:46;8.43;;;3.60;;
56235;SDS011;42143;42.972;-0.192;2022-07-06T00:33:12;10.40;;;3.63;;
56235;SDS011;42143;42.972;-0.192;2022-07-06T00:35:38;11.30;;;4.50;;
56235;SDS011;42143;42.972;-0.192;2022-07-06T00:38:05;11.48;;;4.28;;
56235;SDS011;42143;42.972;-0.192;2022-07-06T00:40:31;11.00;;;4.15;;
56235;SDS011;42143;42.972;-0.192;2022-07-06T00:42:57;12.15;;;4.53;;
56235;SDS011;42143;42.972;-0.192;2022-07-06T00:45:23;14.80;;;4.43;;
56235;SDS011;42143;42.972;-0.192;2022-07-06T00:47:49;11.82;;;4.18;;
56235;SDS011;42143;42.972;-0.192;2022-07-06T00:50:16;9.82;;;3.90;;
56235;SDS011;42143;42.972;-0.192;2022-07-06T00:52:46;11.75;;;3.78;;
56235;SDS011;42143;42.972;-0.192;2022-07-06T00:55:13;9.38;;;3.50;;
56235;SDS011;42143;42.972;-0.192;2022-07-06T00:57:40;11.82;;;3.90;;
56235;SDS011;42143;42.972;-0.192;2022-07-06T01:00:07;14.15;;;4.05;;
56235;SDS011;42143;42.972;-0.192;2022-07-06T01:02:33;9.45;;;3.53;;
56235;SDS011;42143;42.972;-0.192;2022-07-06T01:05:00;8.52;;;3.38;;
56235;SDS011;42143;42.972;-0.192;2022-07-06T01:07:26;7.88;;;3.55;;
56235;SDS011;42143;42.972;-0.192;2022-07-06T01:09:53;9.25;;;3.20;;
56235;SDS011;42143;42.972;-0.192;2022-07-06T01:12:19;9.15;;;3.88;;
56235;SDS011;42143;42.972;-0.192;2022-07-06T01:14:45;10.23;;;4.07;;
56235;SDS011;42143;42.972;-0.192;2022-07-06T01:17:12;8.43;;;3.60;;
56235;SDS011;42143;42.972;-0.192;2022-07-06T01:19:39;9.23;;;3.72;;
56235;SDS011;42143;42.972;-0.192;2022-07-06T01:22:05;13.27;;;4.00;;
56235;SDS011;42143;42.972;-0.192;2022-07-06T01:24:31;9.73;;;3.72;;
56235;SDS011;42143;42.972;-0.192;2022-07-06T01:26:57;10.48;;;3.78;;
56235;SDS011;42143;42.972;-0.192;2022-07-06T01:29:23;10.43;;;3.45;;
56235;SDS011;42143;42.972;-0.192;2022-07-06T01:31:50;7.88;;;3.50;;
56235;SDS011;42143;42.972;-0.192;2022-07-06T01:34:16;9.35;;;3.78;;
56235;SDS011;42143;42.972;-0.192;2022-07-06T01:36:43;9.25;;;3.50;;
56235;SDS011;42143;42.972;-0.192;2022-07-06T01:39:09;10.60;;;3.78;;
56235;SDS011;42143;42.972;-0.192;2022-07-06T01:41:36;11.10;;;4.00;;
56235;SDS011;42143;42.972;-0.192;2022-07-06T01:44:02;8.00;;;3.50;;
56235;SDS011;42143;42.972;-0.192;2022-07-06T01:46:29;8.63;;;3.60;;
56235;SDS011;42143;42.972;-0.192;2022-07-06T01:48:55;13.38;;;3.67;;
56235;SDS011;42143;42.972;-0.192;2022-07-06T01:51:21;9.95;;;3.72;;
56235;SDS011;42143;42.972;-0.192;2022-07-06T01:53:48;10.65;;;3.95;;
56235;SDS011;42143;42.972;-0.192;2022-07-06T01:56:14;11.07;;;3.90;;
56235;SDS011;42143;42.972;-0.192;2022-07-06T01:58:40;10.82;;;3.85;;
56235;SDS011;42143;42.972;-0.192;2022-07-06T02:01:09;9.15;;;3.78;;
56235;SDS011;42143;42.972;-0.192;2022-07-06T02:03:36;9.55;;;3.80;;
56235;SDS011;42143;42.972;-0.192;2022-07-06T02:06:02;9.82;;;3.70;;
56235;SDS011;42143;42.972;-0.192;2022-07-06T02:08:29;11.52;;;4.20;;
56235;SDS011;42143;42.972;-0.192;2022-07-06T02:10:55;13.35;;;4.45;;
56235;SDS011;42143;42.972;-0.192;2022-07-06T02:13:21;10.80;;;3.92;;
56235;SDS011;42143;42.972;-0.192;2022-07-06T02:15:47;10.23;;;3.90;;
56235;SDS011;42143;42.972;-0.192;2022-07-06T02:18:13;9.20;;;4.40;;
56235;SDS011;42143;42.972;-0.192;2022-07-06T02:20:39;9.68;;;4.30;;
56235;SDS011;42143;42.972;-0.192;2022-07-06T02:23:05;11.45;;;4.03;;
56235;SDS011;42143;42.972;-0.192;2022-07-06T02:25:32;10.50;;;3.80;;
56235;SDS011;42143;42.972;-0.192;2022-07-06T02:27:58;10.73;;;4.40;;
56235;SDS011;42143;42.972;-0.192;2022-07-06T02:30:24;11.18;;;4.30;;
56235;SDS011;42143;42.972;-0.192;2022-07-06T02:32:50;12.70;;;4.60;;
56235;SDS011;42143;42.972;-0.192;2022-07-06T02:35:16;11.75;;;4.05;;
56235;SDS011;42143;42.972;-0.192;2022-07-06T02:37:42;10.43;;;4.53;;
56235;SDS011;42143;42.972;-0.192;2022-07-06T02:40:08;11.43;;;4.78;;
56235;SDS011;42143;42.972;-0.192;2022-07-06T02:42:35;11.32;;;4.57;;
56235;SDS011;42143;42.972;-0.192;2022-07-06T02:45:01;9.95;;;4.63;;
56235;SDS011;42143;42.972;-0.192;2022-07-06T02:47:27;12.15;;;4.35;;
56235;SDS011;42143;42.972;-0.192;2022-07-06T02:49:53;11.40;;;4.68;;
56235;SDS011;42143;42.972;-0.192;2022-07-06T02:52:19;12.68;;;4.20;;
56235;SDS011;42143;42.972;-0.192;2022-07-06T02:54:46;12.02;;;4.60;;
56235;SDS011;42143;42.972;-0.192;2022-07-06T02:57:13;20.20;;;5.32;;
56235;SDS011;42143;42.972;-0.192;2022-07-06T02:59:40;13.13;;;4.75;;
56235;SDS011;42143;42.972;-0.192;2022-07-06T03:02:06;14.05;;;4.80;;
56235;SDS011;42143;42.972;-0.192;2022-07-06T03:04:33;15.40;;;6.32;;
56235;SDS011;42143;42.972;-0.192;2022-07-06T03:06:59;12.70;;;5.60;;
56235;SDS011;42143;42.972;-0.192;2022-07-06T03:09:26;13.75;;;6.47;;
56235;SDS011;42143;42.972;-0.192;2022-07-06T03:11:52;17.10;;;6.60;;
56235;SDS011;42143;42.972;-0.192;2022-07-06T03:14:18;14.57;;;6.00;;
56235;SDS011;42143;42.972;-0.192;2022-07-06T03:16:44;13.48;;;5.95;;
56235;SDS011;42143;42.972;-0.192;2022-07-06T03:19:10;16.52;;;6.25;;
56235;SDS011;42143;42.972;-0.192;2022-07-06T03:21:37;12.98;;;5.93;;
56235;SDS011;42143;42.972;-0.192;2022-07-06T03:24:03;14.70;;;6.72;;
56235;SDS011;42143;42.972;-0.192;2022-07-06T03:26:29;14.63;;;6.68;;
56235;SDS011;42143;42.972;-0.192;2022-07-06T03:28:55;12.10;;;6.35;;
56235;SDS011;42143;42.972;-0.192;2022-07-06T03:31:21;13.73;;;6.53;;
56235;SDS011;42143;42.972;-0.192;2022-07-06T03:33:47;15.38;;;6.70;;
56235;SDS011;42143;42.972;-0.192;2022-07-06T03:36:14;15.95;;;6.90;;
56235;SDS011;42143;42.972;-0.192;2022-07-06T03:38:40;14.77;;;6.57;;
56235;SDS011;42143;42.972;-0.192;2022-07-06T03:41:06;15.27;;;6.18;;
56235;SDS011;42143;42.972;-0.192;2022-07-06T03:43:33;14.18;;;5.93;;
56235;SDS011;42143;42.972;-0.192;2022-07-06T03:45:59;14.93;;;6.53;;
56235;SDS011;42143;42.972;-0.192;2022-07-06T03:48:25;16.90;;;6.50;;
56235;SDS011;42143;42.972;-0.192;2022-07-06T03:50:51;15.88;;;6.00;;
56235;SDS011;42143;42.972;-0.192;2022-07-06T03:53:17;12.32;;;5.78;;
56235;SDS011;42143;42.972;-0.192;2022-07-06T03:55:44;16.40;;;6.97;;
56235;SDS011;42143;42.972;-0.192;2022-07-06T03:58:30;14.73;;;6.00;;
56235;SDS011;42143;42.972;-0.192;2022-07-06T04:00:56;12.70;;;5.90;;
56235;SDS011;42143;42.972;-0.192;2022-07-06T04:03:22;15.10;;;6.30;;
56235;SDS011;42143;42.972;-0.192;2022-07-06T04:05:48;12.45;;;6.28;;
56235;SDS011;42143;42.972;-0.192;2022-07-06T04:08:14;10.77;;;5.15;;
56235;SDS011;42143;42.972;-0.192;2022-07-06T04:10:40;10.63;;;4.15;;
56235;SDS011;42143;42.972;-0.192;2022-07-06T04:13:06;13.70;;;4.00;;
56235;SDS011;42143;42.972;-0.192;2022-07-06T04:15:32;8.93;;;4.07;;
56235;SDS011;42143;42.972;-0.192;2022-07-06T04:18:00;11.90;;;3.92;;
56235;SDS011;42143;42.972;-0.192;2022-07-06T04:20:26;11.02;;;3.72;;
56235;SDS011;42143;42.972;-0.192;2022-07-06T04:22:53;11.27;;;4.82;;
56235;SDS011;42143;42.972;-0.192;2022-07-06T04:25:19;11.63;;;5.22;;
56235;SDS011;42143;42.972;-0.192;2022-07-06T04:27:45;10.98;;;4.50;;
56235;SDS011;42143;42.972;-0.192;2022-07-06T04:30:11;15.63;;;5.60;;
56235;SDS011;42143;42.972;-0.192;2022-07-06T04:32:37;12.18;;;4.72;;
56235;SDS011;42143;42.972;-0.192;2022-07-06T04:35:04;15.82;;;4.90;;
56235;SDS011;42143;42.972;-0.192;2022-07-06T04:37:30;11.48;;;4.53;;
56235;SDS011;42143;42.972;-0.192;2022-07-06T04:39:56;12.25;;;4.47;;
56235;SDS011;42143;42.972;-0.192;2022-07-06T04:42:23;13.50;;;4.22;;
56235;SDS011;42143;42.972;-0.192;2022-07-06T04:44:49;10.65;;;4.00;;
56235;SDS011;42143;42.972;-0.192;2022-07-06T04:47:16;10.98;;;4.05;;
56235;SDS011;42143;42.972;-0.192;2022-07-06T04:49:43;9.13;;;3.75;;
56235;SDS011;42143;42.972;-0.192;2022-07-06T04:52:09;9.60;;;4.28;;
56235;SDS011;42143;42.972;-0.192;2022-07-06T04:54:35;11.20;;;4.30;;
56235;SDS011;42143;42.972;-0.192;2022-07-06T04:57:02;9.25;;;2.90;;
56235;SDS011;42143;42.972;-0.192;2022-07-06T04:59:28;7.20;;;3.20;;
56235;SDS011;42143;42.972;-0.192;2022-07-06T05:01:54;8.60;;;3.30;;
56235;SDS011;42143;42.972;-0.192;2022-07-06T05:04:20;10.40;;;3.63;;
56235;SDS011;42143;42.972;-0.192;2022-07-06T05:06:47;12.35;;;3.85;;
56235;SDS011;42143;42.972;-0.192;2022-07-06T05:09:13;12.73;;;4.20;;
56235;SDS011;42143;42.972;-0.192;2022-07-06T05:11:39;11.27;;;4.30;;
56235;SDS011;42143;42.972;-0.192;2022-07-06T05:14:05;10.68;;;4.68;;
